Miami, Florida
Traffic Map
Current Weather Conditions
Miami, Florida
Broken Clouds
Broken Clouds
27°
Feels Like: 28°
Wind Chill: 27° Ceiling: 9000
Heat Index: 28° Visibility: 10mi
Dew Point: 18° Wind: 10mph
Humidity: 56% Direction: 250° (WSW)
Pressure: 29.8in Gusts: 0mph
Raw Report DataKMIA 312253Z 25009KT 10SM SCT048 BKN090 BKN250 27/18 A2980 RMK AO2 SLP092 CB DSNT NE MOV E TCU DSNT SW T02720178
Traffic Incident Summary
Active as of:
Severity:
Category:
InformationThere was an issue retrieving the traffic information for this location. Please try a different location or try again shortly.
Advertisements
Track Severe Weather on mobile